Date,TemperatureHighF,TemperatureAvgF,TemperatureLowF,DewpointHighF,DewpointAvgF,DewpointLowF,HumidityHigh,HumidityAvg,HumidityLow,PressureMaxIn,PressureMinIn,WindSpeedMaxMPH,WindSpeedAvgMPH,GustSpeedMaxMPH,PrecipitationSumIn
2013-2-1,39,30,20,11,8,-2,58,42,23,0.00,40.00,8,4,17,0.00
2013-2-2,48,30,18,8,4,-2,48,35,15,0.00,40.00,5,2,15,0.00
2013-2-3,44,30,20,11,2,-9,47,33,10,0.00,40.00,9,3,16,0.00
2013-2-4,48,30,17,5,1,-4,45,30,16,0.00,40.00,6,3,14,0.00
2013-2-5,48,32,21,16,9,5,59,41,19,0.00,40.00,4,2,14,0.00
2013-2-6,45,32,22,19,14,9,74,49,24,0.00,40.00,5,2,15,0.00
2013-2-7,40,26,14,19,5,-6,74,45,14,0.00,40.00,3,2,8,0.00
2013-2-8,41,28,16,20,11,3,69,51,35,0.00,40.00,9,3,14,0.00
2013-2-9,31,26,18,20,11,-1,80,56,32,0.00,40.00,6,4,12,0.00
2013-2-10,28,20,12,14,-1,-12,87,42,25,0.00,40.00,6,3,13,0.00
2013-2-11,20,12,2,11,6,-4,86,77,60,0.00,40.00,3,2,7,0.01
2013-2-12,32,14,-1,7,0,-7,77,55,28,0.00,40.00,4,2,8,0.01
2013-2-13,40,24,9,10,5,0,69,46,28,0.00,40.00,8,3,16,0.00
2013-2-14,38,24,13,11,3,-7,60,41,17,0.00,40.00,8,3,15,0.00
2013-2-15,31,22,13,9,1,-4,73,42,21,0.00,40.00,7,4,14,0.00
2013-2-16,46,32,17,9,4,-1,54,32,17,0.00,40.00,7,4,15,0.00
2013-2-17,46,33,22,20,-4,-13,80,25,9,0.00,40.00,7,4,18,0.00
2013-2-18,31,22,11,13,-1,-11,77,39,15,0.00,40.00,8,3,14,0.00
2013-2-19,37,22,8,3,-4,-11,48,33,15,0.00,40.00,3,2,7,0.00
2013-2-20,35,24,17,23,11,2,94,62,37,0.00,40.00,3,2,8,0.00
2013-2-21,35,23,12,20,14,5,92,70,39,0.00,40.00,5,2,10,0.11
2013-2-22,28,17,7,14,3,-3,80,57,38,0.00,40.00,5,3,11,0.02
2013-2-23,36,21,8,22,7,-5,94,56,34,0.00,40.00,8,4,17,0.00
2013-2-24,24,17,4,17,10,-1,94,75,46,0.00,40.00,3,2,6,0.00
2013-2-25,42,18,2,6,1,-3,80,52,22,0.00,40.00,3,2,9,0.07
2013-2-26,28,19,8,14,3,-6,65,50,30,0.00,40.00,4,2,10,0.06
2013-2-27,31,16,2,1,-6,-14,60,39,16,0.00,40.00,7,3,13,0.00
2013-2-28,37,20,4,9,-1,-9,71,40,20,0.00,40.00,7,3,15,0.00